createdAt,value
2018-10-11T00:00:24.204Z,44.99
2018-10-11T00:03:22.376Z,44.42
2018-10-11T00:06:20.396Z,44.65
2018-10-11T00:09:19.352Z,44.95
2018-10-11T00:12:17.347Z,44.39
2018-10-11T00:15:15.367Z,44.70
2018-10-11T00:18:13.248Z,44.85
2018-10-11T00:21:11.240Z,44.56
2018-10-11T00:24:08.997Z,44.29
2018-10-11T00:27:07.013Z,44.26
2018-10-11T00:30:05.277Z,44.21
2018-10-11T00:33:03.688Z,44.76
2018-10-11T00:36:01.639Z,44.35
2018-10-11T00:39:00.214Z,44.71
2018-10-11T00:41:58.694Z,44.18
2018-10-11T00:44:56.830Z,44.70
2018-10-11T00:47:55.239Z,44.14
2018-10-11T00:50:53.459Z,44.09
2018-10-11T00:53:51.884Z,44.23
2018-10-11T00:56:50.983Z,44.76
2018-10-11T00:59:48.921Z,44.97
2018-10-11T01:02:46.862Z,44.22
2018-10-11T01:05:44.832Z,44.73
2018-10-11T01:08:42.829Z,44.06
2018-10-11T01:11:40.991Z,44.22
2018-10-11T01:14:39.107Z,44.15
2018-10-11T01:17:37.233Z,44.82
2018-10-11T01:20:35.714Z,44.76
2018-10-11T01:23:34.715Z,44.14
2018-10-11T01:26:32.675Z,44.52
2018-10-11T01:29:30.665Z,44.11
2018-10-11T01:32:29.936Z,44.68
2018-10-11T01:35:27.827Z,44.18
2018-10-11T01:38:26.018Z,44.64
2018-10-11T01:41:24.189Z,44.07
2018-10-11T01:44:22.630Z,44.28
2018-10-11T01:47:20.551Z,44.64
2018-10-11T01:50:19.225Z,44.08
2018-10-11T01:53:17.030Z,44.67
2018-10-11T01:56:16.420Z,44.54
2018-10-11T01:59:15.414Z,44.66
2018-10-11T02:02:13.748Z,44.55
2018-10-11T02:05:11.671Z,44.61
2018-10-11T02:08:09.700Z,44.04
2018-10-11T02:11:07.426Z,44.02
2018-10-11T02:14:05.370Z,44.54
2018-10-11T02:17:04.099Z,44.37
2018-10-11T02:20:03.083Z,44.53
2018-10-11T02:23:01.163Z,44.61
2018-10-11T02:25:59.345Z,44.01
2018-10-11T02:28:57.392Z,44.54
2018-10-11T02:31:55.415Z,43.96
2018-10-11T02:34:53.252Z,44.41
2018-10-11T02:37:51.514Z,44.43
2018-10-11T02:40:49.542Z,44.40
2018-10-11T02:43:48.140Z,43.96
2018-10-11T02:46:46.463Z,44.44
2018-10-11T02:49:44.452Z,43.94
2018-10-11T02:52:42.471Z,43.85
2018-10-11T02:55:47.937Z,44.36
2018-10-11T02:58:58.726Z,43.81
2018-10-11T03:01:57.893Z,43.87
2018-10-11T03:04:57.960Z,43.83
2018-10-11T03:07:56.243Z,44.33
2018-10-11T03:10:55.053Z,44.49
2018-10-11T03:13:53.117Z,44.35
2018-10-11T03:16:50.821Z,43.71
2018-10-11T03:19:50.181Z,43.83
2018-10-11T03:22:48.294Z,44.37
2018-10-11T03:25:47.816Z,44.03
2018-10-11T03:28:45.721Z,44.22
2018-10-11T03:31:44.081Z,44.17
2018-10-11T03:34:42.117Z,43.90
2018-10-11T03:37:40.879Z,44.40
2018-10-11T03:40:38.765Z,43.63
2018-10-11T03:43:37.343Z,44.10
2018-10-11T03:46:35.378Z,43.92
2018-10-11T03:49:34.853Z,44.39
2018-10-11T03:52:33.920Z,43.99
2018-10-11T03:55:32.366Z,44.21
2018-10-11T03:58:30.413Z,44.16
2018-10-11T04:01:28.322Z,44.28
2018-10-11T04:04:26.154Z,44.46
2018-10-11T04:07:24.296Z,43.79
2018-10-11T04:10:22.396Z,44.06
2018-10-11T04:13:21.619Z,44.26
2018-10-11T04:16:19.425Z,44.37
2018-10-11T04:19:17.473Z,44.24
2018-10-11T04:22:15.485Z,43.77
2018-10-11T04:25:13.669Z,43.76
2018-10-11T04:28:11.470Z,43.92
2018-10-11T04:31:09.782Z,43.72
2018-10-11T04:34:07.622Z,43.70
2018-10-11T04:37:05.736Z,43.65
2018-10-11T04:40:03.657Z,44.18
2018-10-11T04:43:02.085Z,44.22
2018-10-11T04:45:59.954Z,43.83
2018-10-11T04:48:59.308Z,43.62
2018-10-11T04:51:57.385Z,43.85
2018-10-11T04:54:55.721Z,44.08
2018-10-11T04:57:53.761Z,43.86
2018-10-11T05:00:52.254Z,44.07
2018-10-11T05:03:50.334Z,44.17
2018-10-11T05:06:48.834Z,43.73
2018-10-11T05:09:47.216Z,43.83
2018-10-11T05:12:45.362Z,44.27
2018-10-11T05:15:44.177Z,43.71
2018-10-11T05:18:43.248Z,44.44
2018-10-11T05:21:41.227Z,44.37
2018-10-11T05:24:39.429Z,44.09
2018-10-11T05:27:37.337Z,44.54
2018-10-11T05:30:35.517Z,44.41
2018-10-11T05:33:34.481Z,44.80
2018-10-11T05:36:33.408Z,44.61
2018-10-11T05:39:31.314Z,45.07
2018-10-11T05:42:29.557Z,44.34
2018-10-11T05:45:30.627Z,44.03
2018-10-11T05:48:28.961Z,44.10
2018-10-11T05:51:26.969Z,44.57
2018-10-11T05:54:27.437Z,44.45
2018-10-11T05:57:25.512Z,44.19
2018-10-11T06:00:25.052Z,43.74
2018-10-11T06:03:23.923Z,43.73
2018-10-11T06:06:23.383Z,44.15
2018-10-11T06:09:22.392Z,43.98
2018-10-11T06:12:20.530Z,43.95
2018-10-11T06:15:19.261Z,43.29
2018-10-11T06:18:17.478Z,43.34
2018-10-11T06:21:15.564Z,43.07
2018-10-11T06:24:13.795Z,43.17
2018-10-11T06:27:11.629Z,43.12
2018-10-11T06:30:09.927Z,43.49
2018-10-11T06:33:08.645Z,42.97
2018-10-11T06:36:07.855Z,43.04
2018-10-11T06:39:07.548Z,43.35
2018-10-11T06:42:05.617Z,42.72
2018-10-11T06:45:04.582Z,42.76
2018-10-11T06:48:05.604Z,43.19
2018-10-11T06:51:04.499Z,42.55
2018-10-11T06:54:02.824Z,42.68
2018-10-11T06:57:01.849Z,43.05
2018-10-11T07:00:01.117Z,42.95
2018-10-11T07:02:59.892Z,42.45
2018-10-11T07:05:58.554Z,42.40
2018-10-11T07:08:56.561Z,42.22
2018-10-11T07:11:55.042Z,42.40
2018-10-11T07:14:52.904Z,42.65
2018-10-11T07:17:51.369Z,42.27
2018-10-11T07:20:49.398Z,42.37
2018-10-11T07:23:48.062Z,42.65
2018-10-11T07:26:45.959Z,42.60
2018-10-11T07:29:44.330Z,42.60
2018-10-11T07:32:42.406Z,41.99
2018-10-11T07:35:40.359Z,42.67
2018-10-11T07:38:38.170Z,41.96
2018-10-11T07:41:35.971Z,42.24
2018-10-11T07:44:34.991Z,42.10
2018-10-11T07:47:33.116Z,42.07
2018-10-11T07:50:31.332Z,41.90
2018-10-11T07:53:29.534Z,41.77
2018-10-11T07:56:28.573Z,41.70
2018-10-11T07:59:26.610Z,42.18
2018-10-11T08:02:24.648Z,41.77
2018-10-11T08:05:22.780Z,42.24
2018-10-11T08:08:20.749Z,41.68
2018-10-11T08:11:19.251Z,41.93
2018-10-11T08:14:17.123Z,42.01
2018-10-11T08:17:17.059Z,41.54
2018-10-11T08:20:14.752Z,41.48
2018-10-11T08:23:13.378Z,42.14
2018-10-11T08:26:11.891Z,41.71
2018-10-11T08:29:09.759Z,41.97
2018-10-11T08:32:07.802Z,41.98
2018-10-11T08:35:06.292Z,41.47
2018-10-11T08:38:04.425Z,41.45
2018-10-11T08:41:02.418Z,42.16
2018-10-11T08:44:00.567Z,41.48
2018-10-11T08:46:58.704Z,41.40
2018-10-11T08:49:56.583Z,42.00
2018-10-11T08:52:54.619Z,41.89
2018-10-11T08:55:52.447Z,41.94
2018-10-11T08:58:50.433Z,41.51
2018-10-11T09:01:48.363Z,41.33
2018-10-11T09:04:46.577Z,41.44
2018-10-11T09:07:44.621Z,41.80
2018-10-11T09:10:43.651Z,41.39
2018-10-11T09:13:42.525Z,41.90
2018-10-11T09:16:41.687Z,41.40
2018-10-11T09:19:39.666Z,41.40
2018-10-11T09:22:37.981Z,41.82
2018-10-11T09:25:36.102Z,41.83
2018-10-11T09:28:34.573Z,41.21
2018-10-11T09:31:32.717Z,41.30
2018-10-11T09:34:31.227Z,41.28
2018-10-11T09:37:29.755Z,41.71
2018-10-11T09:40:28.460Z,41.24
2018-10-11T09:43:26.849Z,41.93
2018-10-11T09:46:25.919Z,41.20
2018-10-11T09:49:24.767Z,41.12
2018-10-11T09:52:22.837Z,41.12
2018-10-11T09:55:20.777Z,41.69
2018-10-11T09:58:20.092Z,41.65
2018-10-11T10:01:24.112Z,41.58
2018-10-11T10:04:22.314Z,41.78
2018-10-11T10:07:22.253Z,41.15
2018-10-11T10:10:21.288Z,41.76
2018-10-11T10:13:19.037Z,41.22
2018-10-11T10:16:18.000Z,41.11
2018-10-11T10:19:15.944Z,41.23
2018-10-11T10:22:15.137Z,41.18
2018-10-11T10:25:13.253Z,41.71
2018-10-11T10:28:11.318Z,41.64
2018-10-11T10:31:09.283Z,40.98
2018-10-11T10:34:07.411Z,41.70
2018-10-11T10:37:06.120Z,41.62
2018-10-11T10:40:04.553Z,41.69
2018-10-11T10:43:02.169Z,41.10
2018-10-11T10:46:00.391Z,41.08
2018-10-11T10:48:58.316Z,41.37
2018-10-11T10:51:57.243Z,41.39
2018-10-11T10:54:54.972Z,41.12
2018-10-11T10:57:52.897Z,41.11
2018-10-11T11:00:50.730Z,41.68
2018-10-11T11:03:49.736Z,41.10
2018-10-11T11:06:47.628Z,41.14
2018-10-11T11:09:45.710Z,41.28
2018-10-11T11:12:43.773Z,41.61
2018-10-11T11:15:41.791Z,41.04
2018-10-11T11:18:41.027Z,41.63
2018-10-11T11:21:39.044Z,41.57
2018-10-11T11:24:37.100Z,41.65
2018-10-11T11:27:35.128Z,41.75
2018-10-11T11:30:33.216Z,41.54
2018-10-11T11:33:31.451Z,41.61
2018-10-11T11:36:30.405Z,41.15
2018-10-11T11:39:31.593Z,41.62
2018-10-11T11:42:29.510Z,41.10
2018-10-11T11:45:27.541Z,41.59
2018-10-11T11:48:25.446Z,40.90
2018-10-11T11:51:23.680Z,41.63
2018-10-11T11:54:26.603Z,41.71
2018-10-11T11:57:25.633Z,41.64
2018-10-11T12:00:23.625Z,41.24
2018-10-11T12:03:21.677Z,41.09
2018-10-11T12:06:20.590Z,41.44
2018-10-11T12:09:20.829Z,41.47
2018-10-11T12:12:18.698Z,41.57
2018-10-11T12:15:16.925Z,41.45
2018-10-11T12:18:16.181Z,41.03
2018-10-11T12:21:14.126Z,41.64
2018-10-11T12:24:12.025Z,41.62
2018-10-11T12:27:09.913Z,41.09
2018-10-11T12:30:07.925Z,41.16
2018-10-11T12:33:06.224Z,41.66
2018-10-11T12:36:03.949Z,41.03
2018-10-11T12:39:02.269Z,41.64
2018-10-11T12:42:00.333Z,41.23
2018-10-11T12:44:58.381Z,41.06
2018-10-11T12:47:56.117Z,41.12
2018-10-11T12:50:55.253Z,41.06
2018-10-11T12:53:53.103Z,41.04
2018-10-11T12:56:51.197Z,41.23
2018-10-11T12:59:49.293Z,41.28
2018-10-11T13:02:47.390Z,41.51
2018-10-11T13:05:45.414Z,41.00
2018-10-11T13:08:43.543Z,41.40
2018-10-11T13:11:41.578Z,41.56
2018-10-11T13:14:39.469Z,41.57
2018-10-11T13:17:41.823Z,41.01
2018-10-11T13:20:36.302Z,41.39
2018-10-11T13:23:35.216Z,41.55
2018-10-11T13:26:33.460Z,41.01
2018-10-11T13:29:31.295Z,40.98
2018-10-11T13:32:29.433Z,41.10
2018-10-11T13:35:27.346Z,41.61
2018-10-11T13:38:25.554Z,41.00
2018-10-11T13:41:23.798Z,41.52
2018-10-11T13:44:21.750Z,41.03
2018-10-11T13:47:19.896Z,41.05
2018-10-11T13:50:17.900Z,40.86
2018-10-11T13:53:19.456Z,41.45
2018-10-11T13:56:13.872Z,41.54
2018-10-11T13:59:14.267Z,40.98
2018-10-11T14:02:09.642Z,41.22
2018-10-11T14:05:08.397Z,41.05
2018-10-11T14:08:06.516Z,41.30
2018-10-11T14:11:04.338Z,41.03
2018-10-11T14:14:02.506Z,41.09
2018-10-11T14:17:01.388Z,41.47
2018-10-11T14:19:59.395Z,41.56
2018-10-11T14:22:57.241Z,41.50
2018-10-11T14:25:56.332Z,41.10
2018-10-11T14:28:54.393Z,41.73
2018-10-11T14:31:52.551Z,41.56
2018-10-11T14:34:51.448Z,41.25
2018-10-11T14:37:49.457Z,41.48
2018-10-11T14:40:47.480Z,40.99
2018-10-11T14:43:45.485Z,41.51
2018-10-11T14:46:43.348Z,40.96
2018-10-11T14:49:41.575Z,41.38
2018-10-11T14:52:39.916Z,41.01
2018-10-11T14:55:37.844Z,41.21
2018-10-11T14:58:35.777Z,41.53
2018-10-11T15:01:33.863Z,41.68
2018-10-11T15:04:31.769Z,40.97
2018-10-11T15:07:31.639Z,41.01
2018-10-11T15:10:29.908Z,41.37
2018-10-11T15:13:27.828Z,41.52
2018-10-11T15:16:25.601Z,41.52
2018-10-11T15:19:23.610Z,40.99
2018-10-11T15:22:21.504Z,41.54
2018-10-11T15:25:19.387Z,41.44
2018-10-11T15:28:17.369Z,41.18
2018-10-11T15:31:15.825Z,41.53
2018-10-11T15:34:14.794Z,41.38
2018-10-11T15:37:12.811Z,41.50
2018-10-11T15:40:10.829Z,41.64
2018-10-11T15:43:08.996Z,41.52
2018-10-11T15:46:06.880Z,41.34
2018-10-11T15:49:05.837Z,41.46
2018-10-11T15:52:03.987Z,40.91
2018-10-11T15:55:02.970Z,41.05
2018-10-11T15:58:00.746Z,41.49
2018-10-11T16:00:59.007Z,41.41
2018-10-11T16:03:57.023Z,40.85
2018-10-11T16:06:56.233Z,41.30
2018-10-11T16:09:54.066Z,40.88
2018-10-11T16:12:52.160Z,41.40
2018-10-11T16:15:51.170Z,41.06
2018-10-11T16:18:49.548Z,40.88
2018-10-11T16:21:48.214Z,40.87
2018-10-11T16:24:46.443Z,40.90
2018-10-11T16:27:44.507Z,41.41
2018-10-11T16:30:42.674Z,40.82
2018-10-11T16:33:40.549Z,40.84
2018-10-11T16:36:38.757Z,41.07
2018-10-11T16:39:36.732Z,40.70
2018-10-11T16:42:34.923Z,41.19
2018-10-11T16:45:33.088Z,40.80
2018-10-11T16:48:32.127Z,40.65
2018-10-11T16:51:31.217Z,41.34
2018-10-11T16:54:29.323Z,40.76
2018-10-11T16:57:27.025Z,40.76
2018-10-11T17:00:25.088Z,40.95
2018-10-11T17:03:23.101Z,41.30
2018-10-11T17:06:21.210Z,40.80
2018-10-11T17:09:21.413Z,40.75
2018-10-11T17:12:19.202Z,40.69
2018-10-11T17:15:17.226Z,40.66
2018-10-11T17:18:15.303Z,41.38
2018-10-11T17:21:13.396Z,41.08
2018-10-11T17:24:11.291Z,41.21
2018-10-11T17:27:09.160Z,40.66
2018-10-11T17:30:07.323Z,40.59
2018-10-11T17:33:05.511Z,41.20
2018-10-11T17:36:03.489Z,40.61
2018-10-11T17:39:01.380Z,40.68
2018-10-11T17:41:59.437Z,40.56
2018-10-11T17:44:57.382Z,41.02
2018-10-11T17:47:55.378Z,40.50
2018-10-11T17:50:53.342Z,40.60
2018-10-11T17:53:51.540Z,40.92
2018-10-11T17:56:49.418Z,40.93
2018-10-11T17:59:47.411Z,41.26
2018-10-11T18:02:46.328Z,41.39
2018-10-11T18:05:44.357Z,40.87
2018-10-11T18:08:43.305Z,40.88
2018-10-11T18:11:42.314Z,40.89
2018-10-11T18:14:40.001Z,41.04
2018-10-11T18:17:38.211Z,41.45
2018-10-11T18:20:36.891Z,40.91
2018-10-11T18:23:35.616Z,40.92
2018-10-11T18:26:33.420Z,41.42
2018-10-11T18:29:31.461Z,40.87
2018-10-11T18:32:30.267Z,41.36
2018-10-11T18:35:29.467Z,40.76
2018-10-11T18:38:27.644Z,40.82
2018-10-11T18:41:25.982Z,40.85
2018-10-11T18:44:23.903Z,40.78
2018-10-11T18:47:22.817Z,40.99
2018-10-11T18:50:20.667Z,41.15
2018-10-11T18:53:18.923Z,41.05
2018-10-11T18:56:17.763Z,40.73
2018-10-11T18:59:15.888Z,40.64
2018-10-11T19:02:14.011Z,40.70
2018-10-11T19:05:12.126Z,40.94
2018-10-11T19:08:10.297Z,40.58
2018-10-11T19:11:08.686Z,41.14
2018-10-11T19:14:07.661Z,41.10
2018-10-11T19:17:07.008Z,41.09
2018-10-11T19:20:04.799Z,40.94
2018-10-11T19:23:02.966Z,40.56
2018-10-11T19:26:00.989Z,40.68
2018-10-11T19:29:00.111Z,41.02
2018-10-11T19:31:59.065Z,41.02
2018-10-11T19:34:57.115Z,40.84
2018-10-11T19:37:56.079Z,41.00
2018-10-11T19:40:54.531Z,40.41
2018-10-11T19:43:53.222Z,40.94
2018-10-11T19:46:51.380Z,40.31
2018-10-11T19:49:49.409Z,40.99
2018-10-11T19:52:47.695Z,40.97
2018-10-11T19:55:45.605Z,40.45
2018-10-11T19:58:44.610Z,40.94
2018-10-11T20:01:43.727Z,40.30
2018-10-11T20:04:41.778Z,40.88
2018-10-11T20:07:40.715Z,40.93
2018-10-11T20:10:38.831Z,40.75
2018-10-11T20:13:36.621Z,40.20
2018-10-11T20:16:34.642Z,40.32
2018-10-11T20:19:32.794Z,40.89
2018-10-11T20:22:31.941Z,40.27
2018-10-11T20:25:30.015Z,40.28
2018-10-11T20:28:28.027Z,40.41
2018-10-11T20:31:25.817Z,40.83
2018-10-11T20:34:24.067Z,39.96
2018-10-11T20:37:23.902Z,40.18
2018-10-11T20:40:22.183Z,40.23
2018-10-11T20:43:20.144Z,40.71
2018-10-11T20:46:18.169Z,40.81
2018-10-11T20:49:16.258Z,40.17
2018-10-11T20:52:15.180Z,40.74
2018-10-11T20:55:14.020Z,40.57
2018-10-11T20:58:11.991Z,40.74
2018-10-11T21:01:10.040Z,40.29
2018-10-11T21:04:08.037Z,40.52
2018-10-11T21:07:06.035Z,40.51
2018-10-11T21:10:04.291Z,40.72
2018-10-11T21:13:02.305Z,40.30
2018-10-11T21:16:00.404Z,40.68
2018-10-11T21:18:58.511Z,41.23
2018-10-11T21:21:56.478Z,41.31
2018-10-11T21:24:54.456Z,41.40
2018-10-11T21:28:01.737Z,40.99
2018-10-11T21:30:59.546Z,41.13
2018-10-11T21:33:57.741Z,41.48
2018-10-11T21:36:55.803Z,40.77
2018-10-11T21:39:54.076Z,40.98
2018-10-11T21:42:51.836Z,41.22
2018-10-11T21:45:51.107Z,41.09
2018-10-11T21:48:48.801Z,41.39
2018-10-11T21:51:47.804Z,41.13
2018-10-11T21:54:46.745Z,41.48
2018-10-11T21:57:45.084Z,40.99
2018-10-11T22:00:49.500Z,40.94
2018-10-11T22:03:49.226Z,41.62
2018-10-11T22:06:47.727Z,41.56
2018-10-11T22:09:47.098Z,41.26
2018-10-11T22:12:45.470Z,41.09
2018-10-11T22:15:43.693Z,41.10
2018-10-11T22:18:41.870Z,41.72
2018-10-11T22:21:40.225Z,41.18
2018-10-11T22:24:38.530Z,41.12
2018-10-11T22:27:36.449Z,41.56
2018-10-11T22:30:34.300Z,41.65
2018-10-11T22:35:37.502Z,41.09
2018-10-11T22:38:06.279Z,41.11
2018-10-11T22:40:35.164Z,41.74
2018-10-11T22:43:04.074Z,41.28
2018-10-11T22:45:33.021Z,41.67
2018-10-11T22:48:01.931Z,41.62
2018-10-11T22:50:30.786Z,41.36
2018-10-11T22:52:59.546Z,41.05
2018-10-11T22:55:31.519Z,40.94
2018-10-11T22:58:00.965Z,41.10
2018-10-11T23:00:29.860Z,40.92
2018-10-11T23:02:58.722Z,41.38
2018-10-11T23:05:27.497Z,40.77
2018-10-11T23:07:56.302Z,40.88
2018-10-11T23:10:25.102Z,41.18
2018-10-11T23:12:53.919Z,40.89
2018-10-11T23:15:22.650Z,40.93
2018-10-11T23:17:51.440Z,41.06
2018-10-11T23:20:20.268Z,40.75
2018-10-11T23:22:49.021Z,41.25
2018-10-11T23:25:17.821Z,40.84
2018-10-11T23:27:46.677Z,40.81
2018-10-11T23:30:15.434Z,40.77
2018-10-11T23:32:44.235Z,40.99
2018-10-11T23:35:13.013Z,40.67
2018-10-11T23:37:41.809Z,40.65
2018-10-11T23:40:11.796Z,41.08
2018-10-11T23:42:41.490Z,41.20
2018-10-11T23:45:12.053Z,40.61
2018-10-11T23:47:41.411Z,41.18
2018-10-11T23:50:10.256Z,41.18
2018-10-11T23:52:39.093Z,40.59
2018-10-11T23:55:08.715Z,41.13
2018-10-11T23:57:37.464Z,41.09
